sensor_id;sensor_type;location;lat;lon;timestamp;P1;durP1;ratioP1;P2;durP2;ratioP2
1350;SDS011;669;50.206;9.998;2022-08-19T00:01:58;16.47;;;14.77;;
1350;SDS011;669;50.206;9.998;2022-08-19T00:04:27;14.33;;;12.93;;
1350;SDS011;669;50.206;9.998;2022-08-19T00:06:58;13.83;;;12.53;;
1350;SDS011;669;50.206;9.998;2022-08-19T00:09:28;14.90;;;13.43;;
1350;SDS011;669;50.206;9.998;2022-08-19T00:11:56;13.83;;;12.43;;
1350;SDS011;669;50.206;9.998;2022-08-19T00:14:25;15.17;;;13.67;;
1350;SDS011;669;50.206;9.998;2022-08-19T00:16:54;15.03;;;13.53;;
1350;SDS011;669;50.206;9.998;2022-08-19T00:19:22;15.50;;;14.07;;
1350;SDS011;669;50.206;9.998;2022-08-19T00:21:51;14.30;;;12.80;;
1350;SDS011;669;50.206;9.998;2022-08-19T00:24:19;15.60;;;14.10;;
1350;SDS011;669;50.206;9.998;2022-08-19T00:26:48;14.30;;;12.90;;
1350;SDS011;669;50.206;9.998;2022-08-19T00:29:18;15.60;;;14.10;;
1350;SDS011;669;50.206;9.998;2022-08-19T00:31:47;17.10;;;15.40;;
1350;SDS011;669;50.206;9.998;2022-08-19T00:34:16;17.07;;;15.30;;
1350;SDS011;669;50.206;9.998;2022-08-19T00:36:44;16.93;;;15.33;;
1350;SDS011;669;50.206;9.998;2022-08-19T00:39:13;15.67;;;14.17;;
1350;SDS011;669;50.206;9.998;2022-08-19T00:41:42;16.23;;;14.63;;
1350;SDS011;669;50.206;9.998;2022-08-19T00:44:15;15.10;;;13.60;;
1350;SDS011;669;50.206;9.998;2022-08-19T00:46:46;15.07;;;13.57;;
1350;SDS011;669;50.206;9.998;2022-08-19T00:49:25;13.77;;;12.47;;
1350;SDS011;669;50.206;9.998;2022-08-19T00:51:57;14.97;;;13.60;;
1350;SDS011;669;50.206;9.998;2022-08-19T00:54:28;15.10;;;13.53;;
1350;SDS011;669;50.206;9.998;2022-08-19T00:56:58;16.10;;;14.47;;
1350;SDS011;669;50.206;9.998;2022-08-19T00:59:28;14.90;;;13.50;;
1350;SDS011;669;50.206;9.998;2022-08-19T01:02:16;14.90;;;13.50;;
1350;SDS011;669;50.206;9.998;2022-08-19T01:04:46;16.70;;;15.13;;
1350;SDS011;669;50.206;9.998;2022-08-19T01:07:14;15.53;;;13.90;;
1350;SDS011;669;50.206;9.998;2022-08-19T01:09:45;16.70;;;14.90;;
1350;SDS011;669;50.206;9.998;2022-08-19T01:12:13;15.13;;;13.67;;
1350;SDS011;669;50.206;9.998;2022-08-19T01:14:42;20.00;;;17.87;;
1350;SDS011;669;50.206;9.998;2022-08-19T01:17:12;17.13;;;15.43;;
1350;SDS011;669;50.206;9.998;2022-08-19T01:19:41;16.00;;;14.33;;
1350;SDS011;669;50.206;9.998;2022-08-19T01:22:12;19.40;;;17.40;;
1350;SDS011;669;50.206;9.998;2022-08-19T01:24:54;17.27;;;15.47;;
1350;SDS011;669;50.206;9.998;2022-08-19T01:27:22;17.03;;;15.33;;
1350;SDS011;669;50.206;9.998;2022-08-19T01:29:50;15.90;;;14.40;;
1350;SDS011;669;50.206;9.998;2022-08-19T01:32:18;15.30;;;13.80;;
1350;SDS011;669;50.206;9.998;2022-08-19T01:34:59;17.13;;;15.50;;
1350;SDS011;669;50.206;9.998;2022-08-19T01:37:29;17.57;;;15.47;;
1350;SDS011;669;50.206;9.998;2022-08-19T01:39:59;14.90;;;13.50;;
1350;SDS011;669;50.206;9.998;2022-08-19T01:42:32;14.83;;;13.33;;
1350;SDS011;669;50.206;9.998;2022-08-19T01:45:01;17.70;;;15.90;;
1350;SDS011;669;50.206;9.998;2022-08-19T01:47:29;15.93;;;14.37;;
1350;SDS011;669;50.206;9.998;2022-08-19T01:49:57;16.03;;;14.10;;
1350;SDS011;669;50.206;9.998;2022-08-19T01:52:25;16.20;;;13.60;;
1350;SDS011;669;50.206;9.998;2022-08-19T01:54:54;15.90;;;14.30;;
1350;SDS011;669;50.206;9.998;2022-08-19T01:57:23;15.90;;;14.40;;
1350;SDS011;669;50.206;9.998;2022-08-19T01:59:52;18.73;;;16.93;;
1350;SDS011;669;50.206;9.998;2022-08-19T02:02:20;16.87;;;15.17;;
1350;SDS011;669;50.206;9.998;2022-08-19T02:04:48;16.63;;;15.00;;
1350;SDS011;669;50.206;9.998;2022-08-19T02:07:18;18.57;;;15.70;;
1350;SDS011;669;50.206;9.998;2022-08-19T02:09:47;19.90;;;17.87;;
1350;SDS011;669;50.206;9.998;2022-08-19T02:12:15;16.50;;;14.80;;
1350;SDS011;669;50.206;9.998;2022-08-19T02:14:44;16.33;;;14.77;;
1350;SDS011;669;50.206;9.998;2022-08-19T02:17:12;16.93;;;15.13;;
1350;SDS011;669;50.206;9.998;2022-08-19T02:19:41;16.90;;;15.27;;
1350;SDS011;669;50.206;9.998;2022-08-19T02:22:09;15.40;;;14.00;;
1350;SDS011;669;50.206;9.998;2022-08-19T02:24:37;14.13;;;12.83;;
1350;SDS011;669;50.206;9.998;2022-08-19T02:27:05;16.67;;;14.90;;
1350;SDS011;669;50.206;9.998;2022-08-19T02:29:33;15.93;;;14.47;;
1350;SDS011;669;50.206;9.998;2022-08-19T02:32:03;14.30;;;12.90;;
1350;SDS011;669;50.206;9.998;2022-08-19T02:34:31;16.73;;;15.10;;
1350;SDS011;669;50.206;9.998;2022-08-19T02:36:59;16.13;;;14.53;;
1350;SDS011;669;50.206;9.998;2022-08-19T02:39:29;16.70;;;14.70;;
1350;SDS011;669;50.206;9.998;2022-08-19T02:41:56;15.93;;;14.43;;
1350;SDS011;669;50.206;9.998;2022-08-19T02:44:25;17.33;;;15.50;;
1350;SDS011;669;50.206;9.998;2022-08-19T02:46:57;19.13;;;15.70;;
1350;SDS011;669;50.206;9.998;2022-08-19T02:49:26;17.90;;;16.10;;
1350;SDS011;669;50.206;9.998;2022-08-19T02:51:59;16.00;;;14.50;;
1350;SDS011;669;50.206;9.998;2022-08-19T02:54:28;16.00;;;14.30;;
1350;SDS011;669;50.206;9.998;2022-08-19T02:56:56;15.63;;;14.07;;
1350;SDS011;669;50.206;9.998;2022-08-19T02:59:24;14.43;;;12.93;;
1350;SDS011;669;50.206;9.998;2022-08-19T03:01:52;17.23;;;15.57;;
1350;SDS011;669;50.206;9.998;2022-08-19T03:04:20;17.10;;;15.40;;
1350;SDS011;669;50.206;9.998;2022-08-19T03:06:51;16.73;;;15.10;;
1350;SDS011;669;50.206;9.998;2022-08-19T03:09:23;16.30;;;14.60;;
1350;SDS011;669;50.206;9.998;2022-08-19T03:11:51;16.37;;;14.77;;
1350;SDS011;669;50.206;9.998;2022-08-19T03:14:19;14.70;;;13.40;;
1350;SDS011;669;50.206;9.998;2022-08-19T03:16:48;15.87;;;14.27;;
1350;SDS011;669;50.206;9.998;2022-08-19T03:19:18;15.67;;;14.13;;
1350;SDS011;669;50.206;9.998;2022-08-19T03:21:47;18.20;;;14.83;;
1350;SDS011;669;50.206;9.998;2022-08-19T03:24:17;15.80;;;14.20;;
1350;SDS011;669;50.206;9.998;2022-08-19T03:26:47;17.20;;;15.50;;
1350;SDS011;669;50.206;9.998;2022-08-19T03:29:16;17.60;;;15.90;;
1350;SDS011;669;50.206;9.998;2022-08-19T03:31:56;15.50;;;13.90;;
1350;SDS011;669;50.206;9.998;2022-08-19T03:34:27;17.17;;;15.47;;
1350;SDS011;669;50.206;9.998;2022-08-19T03:36:59;17.00;;;15.37;;
1350;SDS011;669;50.206;9.998;2022-08-19T03:39:33;17.30;;;14.80;;
1350;SDS011;669;50.206;9.998;2022-08-19T03:42:03;14.40;;;13.00;;
1350;SDS011;669;50.206;9.998;2022-08-19T03:44:51;15.90;;;14.40;;
1350;SDS011;669;50.206;9.998;2022-08-19T03:47:19;14.60;;;13.20;;
1350;SDS011;669;50.206;9.998;2022-08-19T03:49:47;15.77;;;14.27;;
1350;SDS011;669;50.206;9.998;2022-08-19T03:52:15;19.70;;;15.60;;
1350;SDS011;669;50.206;9.998;2022-08-19T03:54:44;17.17;;;15.47;;
1350;SDS011;669;50.206;9.998;2022-08-19T03:57:12;15.30;;;13.90;;
1350;SDS011;669;50.206;9.998;2022-08-19T03:59:40;16.97;;;15.23;;
1350;SDS011;669;50.206;9.998;2022-08-19T04:02:08;18.37;;;16.47;;
1350;SDS011;669;50.206;9.998;2022-08-19T04:04:38;16.67;;;15.07;;
1350;SDS011;669;50.206;9.998;2022-08-19T04:07:08;16.90;;;15.20;;
1350;SDS011;669;50.206;9.998;2022-08-19T04:09:37;16.97;;;15.30;;
1350;SDS011;669;50.206;9.998;2022-08-19T04:12:07;16.10;;;14.43;;
1350;SDS011;669;50.206;9.998;2022-08-19T04:14:35;17.13;;;15.43;;
1350;SDS011;669;50.206;9.998;2022-08-19T04:17:04;16.83;;;15.10;;
1350;SDS011;669;50.206;9.998;2022-08-19T04:19:32;16.40;;;14.60;;
1350;SDS011;669;50.206;9.998;2022-08-19T04:22:01;18.57;;;16.67;;
1350;SDS011;669;50.206;9.998;2022-08-19T04:24:30;18.77;;;16.63;;
1350;SDS011;669;50.206;9.998;2022-08-19T04:26:59;15.13;;;13.60;;
1350;SDS011;669;50.206;9.998;2022-08-19T04:29:28;14.70;;;13.20;;
1350;SDS011;669;50.206;9.998;2022-08-19T04:31:57;16.03;;;14.43;;
1350;SDS011;669;50.206;9.998;2022-08-19T04:34:34;16.07;;;14.57;;
1350;SDS011;669;50.206;9.998;2022-08-19T04:37:23;16.63;;;14.90;;
1350;SDS011;669;50.206;9.998;2022-08-19T04:39:54;17.43;;;15.60;;
1350;SDS011;669;50.206;9.998;2022-08-19T04:42:40;14.13;;;12.73;;
1350;SDS011;669;50.206;9.998;2022-08-19T04:45:11;16.57;;;14.23;;
1350;SDS011;669;50.206;9.998;2022-08-19T04:47:42;13.67;;;12.27;;
1350;SDS011;669;50.206;9.998;2022-08-19T04:50:23;15.37;;;13.87;;
1350;SDS011;669;50.206;9.998;2022-08-19T04:52:51;18.00;;;16.20;;
1350;SDS011;669;50.206;9.998;2022-08-19T04:55:19;16.03;;;14.47;;
1350;SDS011;669;50.206;9.998;2022-08-19T04:57:47;18.00;;;16.17;;
1350;SDS011;669;50.206;9.998;2022-08-19T05:00:18;18.03;;;16.13;;
1350;SDS011;669;50.206;9.998;2022-08-19T05:02:46;15.73;;;14.13;;
1350;SDS011;669;50.206;9.998;2022-08-19T05:05:15;15.00;;;13.50;;
1350;SDS011;669;50.206;9.998;2022-08-19T05:07:43;18.33;;;16.43;;
1350;SDS011;669;50.206;9.998;2022-08-19T05:10:11;18.53;;;16.63;;
1350;SDS011;669;50.206;9.998;2022-08-19T05:12:39;17.70;;;15.80;;
1350;SDS011;669;50.206;9.998;2022-08-19T05:15:08;16.03;;;14.47;;
1350;SDS011;669;50.206;9.998;2022-08-19T05:17:37;15.73;;;13.73;;
1350;SDS011;669;50.206;9.998;2022-08-19T05:20:26;14.70;;;13.40;;
1350;SDS011;669;50.206;9.998;2022-08-19T05:23:11;14.63;;;13.30;;
1350;SDS011;669;50.206;9.998;2022-08-19T05:25:47;14.53;;;13.13;;
1350;SDS011;669;50.206;9.998;2022-08-19T05:28:16;15.00;;;13.50;;
1350;SDS011;669;50.206;9.998;2022-08-19T05:30:44;16.30;;;14.67;;
1350;SDS011;669;50.206;9.998;2022-08-19T05:33:14;15.27;;;13.70;;
1350;SDS011;669;50.206;9.998;2022-08-19T05:35:42;15.60;;;14.10;;
1350;SDS011;669;50.206;9.998;2022-08-19T05:38:10;15.07;;;13.60;;
1350;SDS011;669;50.206;9.998;2022-08-19T05:40:38;15.00;;;13.70;;
1350;SDS011;669;50.206;9.998;2022-08-19T05:43:07;13.20;;;12.00;;
1350;SDS011;669;50.206;9.998;2022-08-19T05:45:38;13.43;;;12.27;;
1350;SDS011;669;50.206;9.998;2022-08-19T05:48:08;12.60;;;11.40;;
1350;SDS011;669;50.206;9.998;2022-08-19T05:50:39;12.77;;;11.47;;
1350;SDS011;669;50.206;9.998;2022-08-19T05:53:08;13.43;;;12.17;;
1350;SDS011;669;50.206;9.998;2022-08-19T05:55:36;14.17;;;12.97;;
1350;SDS011;669;50.206;9.998;2022-08-19T05:58:05;14.20;;;12.90;;
1350;SDS011;669;50.206;9.998;2022-08-19T06:00:34;14.53;;;13.00;;
1350;SDS011;669;50.206;9.998;2022-08-19T06:03:02;15.80;;;14.30;;
1350;SDS011;669;50.206;9.998;2022-08-19T06:05:40;16.23;;;14.73;;
1350;SDS011;669;50.206;9.998;2022-08-19T06:08:17;15.90;;;14.50;;
1350;SDS011;669;50.206;9.998;2022-08-19T06:11:11;15.50;;;14.00;;
1350;SDS011;669;50.206;9.998;2022-08-19T06:13:41;14.87;;;13.47;;
1350;SDS011;669;50.206;9.998;2022-08-19T06:16:11;16.77;;;15.17;;
1350;SDS011;669;50.206;9.998;2022-08-19T06:18:39;14.40;;;13.00;;
1350;SDS011;669;50.206;9.998;2022-08-19T06:21:08;18.03;;;16.33;;
1350;SDS011;669;50.206;9.998;2022-08-19T06:23:36;17.63;;;15.83;;
1350;SDS011;669;50.206;9.998;2022-08-19T06:26:05;18.90;;;17.10;;
1350;SDS011;669;50.206;9.998;2022-08-19T06:28:34;14.87;;;13.50;;
1350;SDS011;669;50.206;9.998;2022-08-19T06:31:05;17.63;;;15.60;;
1350;SDS011;669;50.206;9.998;2022-08-19T06:33:34;19.83;;;16.73;;
1350;SDS011;669;50.206;9.998;2022-08-19T06:36:02;16.07;;;14.47;;
1350;SDS011;669;50.206;9.998;2022-08-19T06:38:32;17.57;;;15.87;;
1350;SDS011;669;50.206;9.998;2022-08-19T06:41:01;17.83;;;16.03;;
1350;SDS011;669;50.206;9.998;2022-08-19T06:43:33;18.80;;;17.00;;
1350;SDS011;669;50.206;9.998;2022-08-19T06:46:09;17.30;;;15.63;;
1350;SDS011;669;50.206;9.998;2022-08-19T06:48:40;15.50;;;14.10;;
1350;SDS011;669;50.206;9.998;2022-08-19T06:51:11;14.70;;;13.50;;
1350;SDS011;669;50.206;9.998;2022-08-19T06:53:46;12.93;;;11.73;;
1350;SDS011;669;50.206;9.998;2022-08-19T06:56:20;14.03;;;12.80;;
1350;SDS011;669;50.206;9.998;2022-08-19T06:58:51;14.60;;;13.30;;
1350;SDS011;669;50.206;9.998;2022-08-19T07:01:19;16.47;;;14.63;;
1350;SDS011;669;50.206;9.998;2022-08-19T07:03:47;17.73;;;16.13;;
1350;SDS011;669;50.206;9.998;2022-08-19T07:06:16;19.60;;;17.70;;
1350;SDS011;669;50.206;9.998;2022-08-19T07:09:10;16.43;;;14.93;;
1350;SDS011;669;50.206;9.998;2022-08-19T07:11:44;19.90;;;18.00;;
1350;SDS011;669;50.206;9.998;2022-08-19T07:14:13;17.80;;;15.60;;
1350;SDS011;669;50.206;9.998;2022-08-19T07:16:45;15.87;;;14.47;;
1350;SDS011;669;50.206;9.998;2022-08-19T07:19:15;14.00;;;12.80;;
1350;SDS011;669;50.206;9.998;2022-08-19T07:21:44;15.03;;;13.60;;
1350;SDS011;669;50.206;9.998;2022-08-19T07:24:15;13.97;;;12.70;;
1350;SDS011;669;50.206;9.998;2022-08-19T07:26:44;13.30;;;12.20;;
1350;SDS011;669;50.206;9.998;2022-08-19T07:29:17;13.17;;;12.03;;
1350;SDS011;669;50.206;9.998;2022-08-19T07:31:53;15.93;;;13.30;;
1350;SDS011;669;50.206;9.998;2022-08-19T07:34:25;15.07;;;13.77;;
1350;SDS011;669;50.206;9.998;2022-08-19T07:36:55;14.93;;;13.47;;
1350;SDS011;669;50.206;9.998;2022-08-19T07:39:26;13.23;;;12.13;;
1350;SDS011;669;50.206;9.998;2022-08-19T07:41:56;13.90;;;12.50;;
1350;SDS011;669;50.206;9.998;2022-08-19T07:44:26;14.30;;;13.00;;
1350;SDS011;669;50.206;9.998;2022-08-19T07:46:55;11.93;;;10.97;;
1350;SDS011;669;50.206;9.998;2022-08-19T07:49:25;12.53;;;11.53;;
1350;SDS011;669;50.206;9.998;2022-08-19T07:51:53;12.00;;;11.03;;
1350;SDS011;669;50.206;9.998;2022-08-19T07:54:24;14.17;;;12.80;;
1350;SDS011;669;50.206;9.998;2022-08-19T07:56:55;14.60;;;13.07;;
1350;SDS011;669;50.206;9.998;2022-08-19T07:59:23;13.83;;;12.73;;
1350;SDS011;669;50.206;9.998;2022-08-19T08:01:52;13.90;;;12.50;;
1350;SDS011;669;50.206;9.998;2022-08-19T08:04:20;12.50;;;11.50;;
1350;SDS011;669;50.206;9.998;2022-08-19T08:07:05;13.93;;;12.63;;
1350;SDS011;669;50.206;9.998;2022-08-19T08:09:58;14.60;;;13.17;;
1350;SDS011;669;50.206;9.998;2022-08-19T08:12:29;13.67;;;12.40;;
1350;SDS011;669;50.206;9.998;2022-08-19T08:15:02;14.33;;;12.93;;
1350;SDS011;669;50.206;9.998;2022-08-19T08:17:38;13.80;;;12.60;;
1350;SDS011;669;50.206;9.998;2022-08-19T08:20:17;15.83;;;13.10;;
1350;SDS011;669;50.206;9.998;2022-08-19T08:22:46;12.83;;;11.63;;
1350;SDS011;669;50.206;9.998;2022-08-19T08:25:34;12.10;;;11.07;;
1350;SDS011;669;50.206;9.998;2022-08-19T08:28:03;11.50;;;10.43;;
1350;SDS011;669;50.206;9.998;2022-08-19T08:30:31;13.83;;;12.43;;
1350;SDS011;669;50.206;9.998;2022-08-19T08:33:02;12.73;;;11.63;;
1350;SDS011;669;50.206;9.998;2022-08-19T08:35:31;11.50;;;10.53;;
1350;SDS011;669;50.206;9.998;2022-08-19T08:38:00;12.43;;;11.33;;
1350;SDS011;669;50.206;9.998;2022-08-19T08:40:30;11.60;;;10.70;;
1350;SDS011;669;50.206;9.998;2022-08-19T08:43:07;11.40;;;10.50;;
1350;SDS011;669;50.206;9.998;2022-08-19T08:45:42;12.10;;;10.77;;
1350;SDS011;669;50.206;9.998;2022-08-19T08:48:20;10.23;;;9.20;;
1350;SDS011;669;50.206;9.998;2022-08-19T08:50:53;10.43;;;9.33;;
1350;SDS011;669;50.206;9.998;2022-08-19T08:53:21;8.73;;;8.03;;
1350;SDS011;669;50.206;9.998;2022-08-19T08:55:58;8.73;;;7.93;;
1350;SDS011;669;50.206;9.998;2022-08-19T08:58:31;9.70;;;8.70;;
1350;SDS011;669;50.206;9.998;2022-08-19T09:01:09;8.10;;;7.50;;
1350;SDS011;669;50.206;9.998;2022-08-19T09:03:39;6.33;;;5.83;;
1350;SDS011;669;50.206;9.998;2022-08-19T09:06:11;5.83;;;5.43;;
1350;SDS011;669;50.206;9.998;2022-08-19T09:08:48;6.10;;;5.70;;
1350;SDS011;669;50.206;9.998;2022-08-19T09:11:42;7.33;;;6.60;;
1350;SDS011;669;50.206;9.998;2022-08-19T09:14:20;6.20;;;5.70;;
1350;SDS011;669;50.206;9.998;2022-08-19T09:17:18;5.80;;;5.40;;
1350;SDS011;669;50.206;9.998;2022-08-19T09:19:54;7.83;;;4.83;;
1350;SDS011;669;50.206;9.998;2022-08-19T09:22:24;6.50;;;5.97;;
1350;SDS011;669;50.206;9.998;2022-08-19T09:24:53;4.93;;;4.53;;
1350;SDS011;669;50.206;9.998;2022-08-19T09:27:23;5.43;;;5.10;;
1350;SDS011;669;50.206;9.998;2022-08-19T09:30:09;5.37;;;4.97;;
1350;SDS011;669;50.206;9.998;2022-08-19T09:32:41;5.20;;;4.60;;
1350;SDS011;669;50.206;9.998;2022-08-19T09:35:09;5.30;;;5.00;;
1350;SDS011;669;50.206;9.998;2022-08-19T09:37:38;4.60;;;4.30;;
1350;SDS011;669;50.206;9.998;2022-08-19T09:40:08;4.47;;;4.17;;
1350;SDS011;669;50.206;9.998;2022-08-19T09:42:39;5.30;;;4.90;;
1350;SDS011;669;50.206;9.998;2022-08-19T09:45:19;4.13;;;3.83;;
1350;SDS011;669;50.206;9.998;2022-08-19T09:47:49;4.67;;;3.60;;
1350;SDS011;669;50.206;9.998;2022-08-19T09:50:20;4.30;;;3.70;;
1350;SDS011;669;50.206;9.998;2022-08-19T09:52:49;3.47;;;3.27;;
1350;SDS011;669;50.206;9.998;2022-08-19T09:55:23;3.93;;;3.67;;
1350;SDS011;669;50.206;9.998;2022-08-19T09:57:59;3.50;;;3.30;;
1350;SDS011;669;50.206;9.998;2022-08-19T10:00:28;3.53;;;3.33;;
1350;SDS011;669;50.206;9.998;2022-08-19T10:02:57;3.10;;;2.90;;
1350;SDS011;669;50.206;9.998;2022-08-19T10:05:26;3.30;;;3.10;;
1350;SDS011;669;50.206;9.998;2022-08-19T10:08:14;3.40;;;3.10;;
1350;SDS011;669;50.206;9.998;2022-08-19T10:10:43;3.00;;;2.80;;
1350;SDS011;669;50.206;9.998;2022-08-19T10:13:14;3.80;;;3.40;;
1350;SDS011;669;50.206;9.998;2022-08-19T10:15:43;3.00;;;2.80;;
1350;SDS011;669;50.206;9.998;2022-08-19T10:18:14;3.20;;;3.00;;
1350;SDS011;669;50.206;9.998;2022-08-19T10:20:44;3.13;;;2.93;;
1350;SDS011;669;50.206;9.998;2022-08-19T10:23:18;3.63;;;3.43;;
1350;SDS011;669;50.206;9.998;2022-08-19T10:25:46;3.53;;;3.23;;
1350;SDS011;669;50.206;9.998;2022-08-19T10:28:16;2.90;;;2.80;;
1350;SDS011;669;50.206;9.998;2022-08-19T10:30:45;3.43;;;3.17;;
1350;SDS011;669;50.206;9.998;2022-08-19T10:33:14;4.67;;;3.10;;
1350;SDS011;669;50.206;9.998;2022-08-19T10:36:02;3.37;;;3.17;;
1350;SDS011;669;50.206;9.998;2022-08-19T10:38:33;6.10;;;3.40;;
1350;SDS011;669;50.206;9.998;2022-08-19T10:41:08;3.30;;;3.10;;
1350;SDS011;669;50.206;9.998;2022-08-19T10:43:40;4.00;;;3.70;;
1350;SDS011;669;50.206;9.998;2022-08-19T10:46:09;3.57;;;3.37;;
1350;SDS011;669;50.206;9.998;2022-08-19T10:48:42;3.27;;;3.07;;
1350;SDS011;669;50.206;9.998;2022-08-19T10:51:12;3.33;;;3.13;;
1350;SDS011;669;50.206;9.998;2022-08-19T10:53:59;2.93;;;2.73;;
1350;SDS011;669;50.206;9.998;2022-08-19T10:56:32;4.80;;;3.53;;
1350;SDS011;669;50.206;9.998;2022-08-19T10:59:20;4.10;;;3.80;;
1350;SDS011;669;50.206;9.998;2022-08-19T11:01:52;2.97;;;2.87;;
1350;SDS011;669;50.206;9.998;2022-08-19T11:04:22;4.03;;;3.20;;
1350;SDS011;669;50.206;9.998;2022-08-19T11:06:55;4.40;;;3.10;;
1350;SDS011;669;50.206;9.998;2022-08-19T11:09:23;3.63;;;3.43;;
1350;SDS011;669;50.206;9.998;2022-08-19T11:11:59;3.07;;;2.93;;
1350;SDS011;669;50.206;9.998;2022-08-19T11:14:31;4.23;;;3.20;;
1350;SDS011;669;50.206;9.998;2022-08-19T11:17:00;3.30;;;3.10;;
1350;SDS011;669;50.206;9.998;2022-08-19T11:19:28;3.00;;;2.80;;
1350;SDS011;669;50.206;9.998;2022-08-19T11:21:57;3.27;;;3.00;;
1350;SDS011;669;50.206;9.998;2022-08-19T11:24:26;3.73;;;3.50;;
1350;SDS011;669;50.206;9.998;2022-08-19T11:26:55;3.50;;;3.20;;
1350;SDS011;669;50.206;9.998;2022-08-19T11:29:32;3.07;;;2.87;;
1350;SDS011;669;50.206;9.998;2022-08-19T11:32:03;3.27;;;3.00;;
1350;SDS011;669;50.206;9.998;2022-08-19T11:34:31;2.17;;;2.07;;
1350;SDS011;669;50.206;9.998;2022-08-19T11:37:02;2.40;;;2.20;;
1350;SDS011;669;50.206;9.998;2022-08-19T11:39:31;2.40;;;2.30;;
1350;SDS011;669;50.206;9.998;2022-08-19T11:42:00;5.77;;;2.70;;
1350;SDS011;669;50.206;9.998;2022-08-19T11:44:28;2.63;;;2.40;;
1350;SDS011;669;50.206;9.998;2022-08-19T11:46:58;2.07;;;1.93;;
1350;SDS011;669;50.206;9.998;2022-08-19T11:49:34;1.90;;;1.80;;
1350;SDS011;669;50.206;9.998;2022-08-19T11:52:02;2.30;;;2.10;;
1350;SDS011;669;50.206;9.998;2022-08-19T11:54:30;2.40;;;2.30;;
1350;SDS011;669;50.206;9.998;2022-08-19T11:56:58;3.03;;;1.80;;
1350;SDS011;669;50.206;9.998;2022-08-19T11:59:27;2.17;;;1.93;;
1350;SDS011;669;50.206;9.998;2022-08-19T12:01:55;2.27;;;2.17;;
1350;SDS011;669;50.206;9.998;2022-08-19T12:04:25;2.57;;;2.37;;
1350;SDS011;669;50.206;9.998;2022-08-19T12:06:53;1.60;;;1.50;;
1350;SDS011;669;50.206;9.998;2022-08-19T12:09:21;2.60;;;2.20;;
1350;SDS011;669;50.206;9.998;2022-08-19T12:11:49;2.30;;;2.00;;
1350;SDS011;669;50.206;9.998;2022-08-19T12:14:18;2.03;;;1.93;;
1350;SDS011;669;50.206;9.998;2022-08-19T12:16:45;2.80;;;2.60;;
1350;SDS011;669;50.206;9.998;2022-08-19T12:19:17;2.20;;;2.07;;
1350;SDS011;669;50.206;9.998;2022-08-19T12:21:49;2.50;;;2.30;;
1350;SDS011;669;50.206;9.998;2022-08-19T12:24:19;2.30;;;2.10;;
1350;SDS011;669;50.206;9.998;2022-08-19T12:26:49;1.57;;;1.57;;
1350;SDS011;669;50.206;9.998;2022-08-19T12:29:19;2.00;;;1.67;;
1350;SDS011;669;50.206;9.998;2022-08-19T12:31:54;2.00;;;1.90;;
1350;SDS011;669;50.206;9.998;2022-08-19T12:34:27;2.00;;;1.90;;
1350;SDS011;669;50.206;9.998;2022-08-19T12:36:58;1.53;;;1.40;;
1350;SDS011;669;50.206;9.998;2022-08-19T12:39:28;2.13;;;2.03;;
1350;SDS011;669;50.206;9.998;2022-08-19T12:41:57;2.80;;;2.30;;
1350;SDS011;669;50.206;9.998;2022-08-19T12:44:25;1.77;;;1.67;;
1350;SDS011;669;50.206;9.998;2022-08-19T12:46:57;2.57;;;2.47;;
1350;SDS011;669;50.206;9.998;2022-08-19T12:49:26;1.90;;;1.80;;
1350;SDS011;669;50.206;9.998;2022-08-19T12:52:16;2.10;;;2.00;;
1350;SDS011;669;50.206;9.998;2022-08-19T12:54:49;1.67;;;1.57;;
1350;SDS011;669;50.206;9.998;2022-08-19T12:57:20;1.50;;;1.40;;
1350;SDS011;669;50.206;9.998;2022-08-19T12:59:57;2.17;;;2.00;;
1350;SDS011;669;50.206;9.998;2022-08-19T13:02:26;1.80;;;1.70;;
1350;SDS011;669;50.206;9.998;2022-08-19T13:04:54;4.97;;;2.20;;
1350;SDS011;669;50.206;9.998;2022-08-19T13:07:24;2.00;;;1.90;;
1350;SDS011;669;50.206;9.998;2022-08-19T13:09:52;2.67;;;2.47;;
1350;SDS011;669;50.206;9.998;2022-08-19T13:12:20;2.17;;;2.03;;
1350;SDS011;669;50.206;9.998;2022-08-19T13:14:50;2.40;;;2.30;;
1350;SDS011;669;50.206;9.998;2022-08-19T13:17:18;2.00;;;1.90;;
1350;SDS011;669;50.206;9.998;2022-08-19T13:19:46;4.17;;;2.17;;
1350;SDS011;669;50.206;9.998;2022-08-19T13:22:14;2.53;;;2.23;;
1350;SDS011;669;50.206;9.998;2022-08-19T13:24:44;3.83;;;2.43;;
1350;SDS011;669;50.206;9.998;2022-08-19T13:27:13;2.57;;;2.30;;
1350;SDS011;669;50.206;9.998;2022-08-19T13:29:41;2.10;;;2.00;;
1350;SDS011;669;50.206;9.998;2022-08-19T13:32:28;1.87;;;1.77;;
1350;SDS011;669;50.206;9.998;2022-08-19T13:35:15;2.53;;;2.43;;
1350;SDS011;669;50.206;9.998;2022-08-19T13:37:43;2.60;;;2.50;;
1350;SDS011;669;50.206;9.998;2022-08-19T13:40:13;2.27;;;2.10;;
1350;SDS011;669;50.206;9.998;2022-08-19T13:42:46;2.00;;;1.90;;
1350;SDS011;669;50.206;9.998;2022-08-19T13:45:16;3.70;;;2.50;;
1350;SDS011;669;50.206;9.998;2022-08-19T13:47:46;2.17;;;2.07;;
1350;SDS011;669;50.206;9.998;2022-08-19T13:50:15;1.87;;;1.77;;
1350;SDS011;669;50.206;9.998;2022-08-19T13:52:45;2.37;;;2.27;;
1350;SDS011;669;50.206;9.998;2022-08-19T13:55:14;2.13;;;2.03;;
1350;SDS011;669;50.206;9.998;2022-08-19T13:57:50;2.20;;;2.10;;
1350;SDS011;669;50.206;9.998;2022-08-19T14:00:19;2.10;;;2.00;;
1350;SDS011;669;50.206;9.998;2022-08-19T14:02:50;2.30;;;2.20;;
1350;SDS011;669;50.206;9.998;2022-08-19T14:05:20;2.87;;;2.67;;
1350;SDS011;669;50.206;9.998;2022-08-19T14:07:48;2.67;;;1.97;;
1350;SDS011;669;50.206;9.998;2022-08-19T14:10:18;2.67;;;2.47;;
1350;SDS011;669;50.206;9.998;2022-08-19T14:12:47;2.67;;;2.17;;
1350;SDS011;669;50.206;9.998;2022-08-19T14:15:15;2.57;;;2.47;;
1350;SDS011;669;50.206;9.998;2022-08-19T14:17:43;2.80;;;2.60;;
1350;SDS011;669;50.206;9.998;2022-08-19T14:20:13;2.60;;;2.50;;
1350;SDS011;669;50.206;9.998;2022-08-19T14:22:44;2.00;;;1.90;;
1350;SDS011;669;50.206;9.998;2022-08-19T14:25:14;2.50;;;2.40;;
1350;SDS011;669;50.206;9.998;2022-08-19T14:27:46;2.80;;;2.70;;
1350;SDS011;669;50.206;9.998;2022-08-19T14:30:16;2.63;;;2.53;;
1350;SDS011;669;50.206;9.998;2022-08-19T14:32:46;2.10;;;2.00;;
1350;SDS011;669;50.206;9.998;2022-08-19T14:35:14;2.80;;;2.60;;
1350;SDS011;669;50.206;9.998;2022-08-19T14:37:43;2.70;;;2.60;;
1350;SDS011;669;50.206;9.998;2022-08-19T14:40:13;2.57;;;2.47;;
1350;SDS011;669;50.206;9.998;2022-08-19T14:42:43;2.60;;;2.40;;
1350;SDS011;669;50.206;9.998;2022-08-19T14:45:12;2.80;;;2.60;;
1350;SDS011;669;50.206;9.998;2022-08-19T14:47:40;2.70;;;2.50;;
1350;SDS011;669;50.206;9.998;2022-08-19T14:50:11;2.80;;;2.60;;
1350;SDS011;669;50.206;9.998;2022-08-19T14:52:43;2.67;;;2.50;;
1350;SDS011;669;50.206;9.998;2022-08-19T14:55:11;3.10;;;2.90;;
1350;SDS011;669;50.206;9.998;2022-08-19T14:57:40;6.00;;;2.60;;
1350;SDS011;669;50.206;9.998;2022-08-19T15:00:09;2.60;;;2.50;;
1350;SDS011;669;50.206;9.998;2022-08-19T15:02:40;3.03;;;2.83;;
1350;SDS011;669;50.206;9.998;2022-08-19T15:05:10;2.80;;;2.60;;
1350;SDS011;669;50.206;9.998;2022-08-19T15:07:39;2.67;;;2.57;;
1350;SDS011;669;50.206;9.998;2022-08-19T15:10:08;2.40;;;2.20;;
1350;SDS011;669;50.206;9.998;2022-08-19T15:12:38;2.47;;;2.37;;
1350;SDS011;669;50.206;9.998;2022-08-19T15:15:09;3.00;;;2.80;;
1350;SDS011;669;50.206;9.998;2022-08-19T15:17:41;2.43;;;2.33;;
1350;SDS011;669;50.206;9.998;2022-08-19T15:20:12;2.80;;;2.60;;
1350;SDS011;669;50.206;9.998;2022-08-19T15:22:42;2.80;;;2.60;;
1350;SDS011;669;50.206;9.998;2022-08-19T15:25:10;2.20;;;2.10;;
1350;SDS011;669;50.206;9.998;2022-08-19T15:27:41;3.47;;;2.40;;
1350;SDS011;669;50.206;9.998;2022-08-19T15:30:09;3.07;;;2.60;;
1350;SDS011;669;50.206;9.998;2022-08-19T15:32:38;2.43;;;2.23;;
1350;SDS011;669;50.206;9.998;2022-08-19T15:35:14;2.57;;;2.33;;
1350;SDS011;669;50.206;9.998;2022-08-19T15:37:43;2.27;;;2.17;;